Race Results for…
Louisville Cocoa Classic 5K

February 02, 2019 Results presented by All Community Events and timed by 3 Way Racing
Participants:
804
Last Updated:
2/8/2019 9:59:48 AM

Overall winners are sorted by gun time. Other results are sorted by chip time and are unofficial for 5 days after race date.

Stats

Leaderboards

Jump to a Leaderboard

5K

Male - Overall
Bib Name Chip Elapsed Pace City Age
1 5546 RONALD BARNES 00:19:34 06:18 min/mile 31
2 5797 INGRID CAMPOS 00:19:44 06:21 min/mile 43
3 5750 JUSTIN ELLIS 00:19:48 06:23 min/mile 29
Female - Overall
Bib Name Chip Elapsed Pace City Age
1 5349 LEAH KLEMPNER 00:19:54 06:25 min/mile 34
2 5022 CARRIE TALBOTT 00:21:54 07:03 min/mile 37
3 5412 KIRSTIN MILLER 00:22:06 07:07 min/mile 33

Overall Results

Tip: Swipe the results table to view more.
801 entrants …
5K Results
Race Place Bib Name Chip Elapsed Pace Gender Gender Place Age Age Place
1 5546 RONALD BARNES 00:19:34 06:18 min/mile M 1 31 O/A
2 5797 INGRID CAMPOS 00:19:44 06:21 min/mile M 2 43 O/A
3 5750 JUSTIN ELLIS 00:19:48 06:23 min/mile M 3 29 O/A
4 5349 LEAH KLEMPNER 00:19:54 06:25 min/mile F 1 34 O/A
5 5473 JORDAN BOYKIN 00:20:17 06:32 min/mile M 4 28 1
6 5799 JOHN MANDROLA 00:21:54 07:03 min/mile M 5 55 1
7 5022 CARRIE TALBOTT 00:21:54 07:03 min/mile F 2 37 O/A
8 5298 KEVIN MESTROVICH 00:21:55 07:04 min/mile M 6 33 1
9 5753 JIM HUGUENARD 00:21:57 07:04 min/mile M 7 65 1
10 5264 IAN GUERRERO 00:21:59 07:05 min/mile M 8 17 1
11 5412 KIRSTIN MILLER 00:22:06 07:07 min/mile F 3 33 O/A
12 5196 CHRISTOPHER NIELSEN 00:22:09 07:08 min/mile M 9 51 1
13 5747 WILLIAM REED 00:22:18 07:11 min/mile M 10 24 1
14 5746 KEVIN BARRON 00:22:18 07:11 min/mile M 11 29 2
15 5759 THOMAS WEINRICH 00:22:22 07:12 min/mile M 12 10 1
16 5179 MARK PIKE 00:22:27 07:14 min/mile M 13 41 1
17 5371 THOMAS JOHNSON 00:22:29 07:15 min/mile M 14 34 2
18 5744 KOJI MURATA 00:22:31 07:15 min/mile M 15 50 2
19 5709 TABITHA BELL 00:22:31 07:15 min/mile F 4 44 1
20 5348 GEORGE KLEMPNER 00:22:32 07:16 min/mile M 16 38 1
21 5432 PETE O'BOYLE 00:22:33 07:16 min/mile M 17 63 1
22 5110 ANDREW MASKE 00:22:34 07:16 min/mile M 18 56 2
23 5812 TOM GILLROY 00:22:57 07:24 min/mile M 19 46 1
24 5721 JULIA SULLIVAN 00:23:03 07:26 min/mile F 5 28 1
25 5127 JK WILLIS 00:23:04 07:26 min/mile M 20 42 2
26 5512 JONATHON ESSEX 00:23:04 07:26 min/mile M 21 29 3
27 5613 RACHEL DEJARNATT 00:23:05 07:26 min/mile F 6 35 1
28 5734 DAVID KAELIN 00:23:07 07:27 min/mile M 22 52 3
29 5771 CHARLES FELL 00:23:16 07:30 min/mile M 23 53 4
30 5694 COLM MCGUCKIAN 00:23:33 07:35 min/mile M 24 44 3
31 5190 GENE HUGHES 00:23:38 07:37 min/mile M 25 37 2
32 5339 MATT BUEHLER 00:23:39 07:37 min/mile M 26 32 3
33 5765 BRAD WAGNER 00:24:07 07:46 min/mile M 27 37 3
34 5596 ERIC MCCLOUD 00:24:08 07:47 min/mile M 28 58 3
35 5157 BRITTNEY VITITOE 00:24:09 07:47 min/mile F 7 34 1
36 5501 SARAH BUTLER 00:24:10 07:47 min/mile F 8 49 1
37 5502 MICHAEL MCGEE 00:24:13 07:48 min/mile M 29 49 2
38 5479 CHRISTOPHER JAMISON 00:24:14 07:49 min/mile M 30 37 4
39 5779 JERARDO JASSO 00:24:14 07:49 min/mile M 31 24 2
40 5273 ANTHONY GREER 00:24:15 07:49 min/mile M 32 57 4
41 5554 NARESH NALLA 00:24:16 07:49 min/mile M 33 27 4
42 5341 RUSTY WHITAKER 00:24:22 07:51 min/mile M 34 47 3
43 5627 MARTAVIOUS CABRAL 00:24:22 07:51 min/mile M 35 21 3
44 5738 OUSMAN SECKA 00:24:23 07:51 min/mile M 36 20 4
45 5615 CHUCK WATHEN 00:24:29 07:53 min/mile M 37 65 2
46 5352 DAVID SEDLAK 00:24:32 07:54 min/mile M 38 61 2
47 5614 BARTON DEJARNATT 00:24:33 07:55 min/mile M 39 36 5
48 5731 DONALD LAMBERT 00:24:43 07:58 min/mile M 40 53 5
49 5158 JEANETTE SALGADO 00:24:46 07:59 min/mile F 9 27 2
50 5405 VINCENT KOCH 00:24:57 08:02 min/mile M 41 43 4
801 entrants …

Winners

Tip: Slide the results table left and right to view more.
Overall
Race Place Bib Name Chip Elapsed Pace Gender Gender Place Age Age Place
1 5546 RONALD BARNES 00:19:34 06:18 min/mile M 1 31 O/A
2 5797 INGRID CAMPOS 00:19:44 06:21 min/mile M 2 43 O/A
3 5750 JUSTIN ELLIS 00:19:48 06:23 min/mile M 3 29 O/A
4 5349 LEAH KLEMPNER 00:19:54 06:25 min/mile F 1 34 O/A
7 5022 CARRIE TALBOTT 00:21:54 07:03 min/mile F 2 37 O/A
11 5412 KIRSTIN MILLER 00:22:06 07:07 min/mile F 3 33 O/A
1 - 14
Race Place Bib Name Chip Elapsed Pace Gender Gender Place Age Age Place
15 5759 THOMAS WEINRICH 00:22:22 07:12 min/mile M 12 10 1
78 5727 JOEY MOCH III 00:26:28 08:32 min/mile M 58 11 2
125 5748 JACKSON CRAVENS 00:28:25 09:10 min/mile M 82 11 3
61 5089 SOPHIE KRUMHANSL 00:25:35 08:15 min/mile F 12 13 1
70 5251 CADENCE CAUDILL 00:26:06 08:25 min/mile F 16 12 2
83 5749 RILEY CRAVENS 00:26:43 08:37 min/mile F 22 9 3
15 - 19
Race Place Bib Name Chip Elapsed Pace Gender Gender Place Age Age Place
10 5264 IAN GUERRERO 00:21:59 07:05 min/mile M 8 17 1
68 5225 AZZAM MALKAWI 00:26:02 08:23 min/mile M 53 19 2
123 5013 HUNTER WALLS 00:28:13 09:06 min/mile M 80 17 3
146 5555 REAGAN TRAPP 00:29:27 09:30 min/mile F 56 16 1
335 5293 KAITLYN GORDON 00:36:02 11:37 min/mile F 195 19 2
346 5257 KATIE HUMPHREY 00:36:28 11:45 min/mile F 201 19 3
20 - 24
Race Place Bib Name Chip Elapsed Pace Gender Gender Place Age Age Place
13 5747 WILLIAM REED 00:22:18 07:11 min/mile M 10 24 1
39 5779 JERARDO JASSO 00:24:14 07:49 min/mile M 31 24 2
43 5627 MARTAVIOUS CABRAL 00:24:22 07:51 min/mile M 35 21 3
52 5099 BETH FARBER 00:25:05 08:05 min/mile F 10 23 1
56 5705 HANNAH NIELSEN 00:25:24 08:11 min/mile F 11 23 2
67 5423 SHANNON BRYAR 00:26:01 08:23 min/mile F 14 22 3
25 - 29
Race Place Bib Name Chip Elapsed Pace Gender Gender Place Age Age Place
5 5473 JORDAN BOYKIN 00:20:17 06:32 min/mile M 4 28 1
14 5746 KEVIN BARRON 00:22:18 07:11 min/mile M 11 29 2
26 5512 JONATHON ESSEX 00:23:04 07:26 min/mile M 21 29 3
24 5721 JULIA SULLIVAN 00:23:03 07:26 min/mile F 5 28 1
49 5158 JEANETTE SALGADO 00:24:46 07:59 min/mile F 9 27 2
62 5173 KARA AUGUSTINE 00:25:37 08:15 min/mile F 13 28 3
30 - 34
Race Place Bib Name Chip Elapsed Pace Gender Gender Place Age Age Place
8 5298 KEVIN MESTROVICH 00:21:55 07:04 min/mile M 6 33 1
17 5371 THOMAS JOHNSON 00:22:29 07:15 min/mile M 14 34 2
32 5339 MATT BUEHLER 00:23:39 07:37 min/mile M 26 32 3
35 5157 BRITTNEY VITITOE 00:24:09 07:47 min/mile F 7 34 1
75 5186 JENNIFER BLAIR 00:26:21 08:30 min/mile F 19 34 2
80 5200 JESSICA MORGAN 00:26:33 08:33 min/mile F 20 33 3
35 - 39
Race Place Bib Name Chip Elapsed Pace Gender Gender Place Age Age Place
20 5348 GEORGE KLEMPNER 00:22:32 07:16 min/mile M 16 38 1
31 5190 GENE HUGHES 00:23:38 07:37 min/mile M 25 37 2
33 5765 BRAD WAGNER 00:24:07 07:46 min/mile M 27 37 3
27 5613 RACHEL DEJARNATT 00:23:05 07:26 min/mile F 6 35 1
71 5250 HEATHER CAUDILL 00:26:08 08:25 min/mile F 17 39 2
91 5477 JULIE MCCULLOUGH 00:26:56 08:41 min/mile F 26 38 3
40 - 44
Race Place Bib Name Chip Elapsed Pace Gender Gender Place Age Age Place
16 5179 MARK PIKE 00:22:27 07:14 min/mile M 13 41 1
25 5127 JK WILLIS 00:23:04 07:26 min/mile M 20 42 2
30 5694 COLM MCGUCKIAN 00:23:33 07:35 min/mile M 24 44 3
19 5709 TABITHA BELL 00:22:31 07:15 min/mile F 4 44 1
69 5760 RACHEL WEINRICH 00:26:04 08:24 min/mile F 15 40 2
95 5692 ANDREA LEVINE 00:27:00 08:42 min/mile F 28 40 3
45 - 49
Race Place Bib Name Chip Elapsed Pace Gender Gender Place Age Age Place
23 5812 TOM GILLROY 00:22:57 07:24 min/mile M 19 46 1
37 5502 MICHAEL MCGEE 00:24:13 07:48 min/mile M 29 49 2
42 5341 RUSTY WHITAKER 00:24:22 07:51 min/mile M 34 47 3
36 5501 SARAH BUTLER 00:24:10 07:47 min/mile F 8 49 1
114 5132 DANA YURKANIN 00:27:50 08:58 min/mile F 36 49 2
133 5798 FRANYATE TAYLOR 00:28:54 09:19 min/mile F 44 47 3
50 - 54
Race Place Bib Name Chip Elapsed Pace Gender Gender Place Age Age Place
12 5196 CHRISTOPHER NIELSEN 00:22:09 07:08 min/mile M 9 51 1
18 5744 KOJI MURATA 00:22:31 07:15 min/mile M 15 50 2
28 5734 DAVID KAELIN 00:23:07 07:27 min/mile M 22 52 3
136 5701 KATHERINE TAYLOR 00:29:05 09:22 min/mile F 47 51 1
139 5377 CAROLYN BENSON 00:29:14 09:25 min/mile F 49 54 2
159 5256 SUZANNE DODSON 00:29:59 09:40 min/mile F 64 54 3
55 - 59
Race Place Bib Name Chip Elapsed Pace Gender Gender Place Age Age Place
6 5799 JOHN MANDROLA 00:21:54 07:03 min/mile M 5 55 1
22 5110 ANDREW MASKE 00:22:34 07:16 min/mile M 18 56 2
34 5596 ERIC MCCLOUD 00:24:08 07:47 min/mile M 28 58 3
86 5360 FELICIA HAGER 00:26:48 08:38 min/mile F 24 58 1
99 5359 SANDRA NICHOLS 00:27:18 08:48 min/mile F 31 59 2
121 5375 GAYLE HICKEY 00:28:02 09:02 min/mile F 40 56 3
60 - 64
Race Place Bib Name Chip Elapsed Pace Gender Gender Place Age Age Place
21 5432 PETE O'BOYLE 00:22:33 07:16 min/mile M 17 63 1
46 5352 DAVID SEDLAK 00:24:32 07:54 min/mile M 38 61 2
230 5464 BOB SPRINKLE 00:32:45 10:33 min/mile M 112 61 3
72 5052 SUZANNE DUVALL 00:26:09 08:26 min/mile F 18 61 1
166 5120 VICKIE HEIERMAN 00:30:08 09:43 min/mile F 69 63 2
252 5563 SHARON LANE 00:33:31 10:48 min/mile F 130 61 3
65 - 69
Race Place Bib Name Chip Elapsed Pace Gender Gender Place Age Age Place
9 5753 JIM HUGUENARD 00:21:57 07:04 min/mile M 7 65 1
45 5615 CHUCK WATHEN 00:24:29 07:53 min/mile M 37 65 2
217 5265 RODOLFO GUERRERO 00:32:15 10:24 min/mile M 108 67 3
90 5108 BARBARA PALMQUIST 00:26:55 08:40 min/mile F 25 67 1
404 5096 SUSAN WARD 00:39:18 12:40 min/mile F 247 66 2
464 5323 ROBBIE ALTMAN 00:42:58 13:51 min/mile F 296 65 3
70 - 98
Race Place Bib Name Chip Elapsed Pace Gender Gender Place Age Age Place
475 5255 DICK DENNIS 00:44:12 14:15 min/mile M 166 72 1
521 5057 LEO MCMILLEN 00:48:42 15:42 min/mile M 177 82 2
542 5716 GALE CRENSHAW 00:50:05 16:09 min/mile M 183 71 3
627 5107 BARBARA PLANTZ 00:57:07 18:25 min/mile F 424 72 1

Race Info

Participants:
804
Last Updated:
2/8/2019 9:59:48 AM

Overall winners are sorted by gun time. Other results are sorted by chip time and are unofficial for 5 days after race date.

Tip: Swipe the results table to view more.

Search for Name, Bib, City, State or Team
in the field above… by clicking the icon below…

Notes & Race Statistics

36 - 0


Male
Total Finishers Avg Pace
0 00:00

Female
Total Finishers Avg Pace
0 00:00

5K - 664


Male
Total Finishers Avg Pace
209 11:07

Female
Total Finishers Avg Pace
455 13:03
Timed using RM Timing Systems
Take control of your event
A product of US Sports Timing

Have a question or need to make a correction?

Submit a Result Correction